Drewsey, Oregon
Current Conditions -  °F | °C
As of 7:53 PM on Saturday 25 Oct 2014 (Local Time) from KBNO Reporting Station
Clear Clear  
Wind Chill: 42°   Ceiling: Unl
Heat Index: 45°   Visibility: 10mi
Dew Point: 39°   Wind: 6mph
Humidity: 80%   Direction: 200°SSW
Pressure: 29.89"   Gusts: NA
Location:  43.81°N, 118.38°W
Report Text: KBNO 260253Z AUTO 20005KT 10SM CLR 07/04 A2989 RMK AO2 PK WND 24031/0154 RAE26 SLP123 P0000 60000 T00720039 53036
Loading
Personal Weather Stations






























Interactive Weather Map
Tropical Storm Tracking
New forecast layout! Learn more

10-Day Weather Forecast

Advertisements
Track Severe Weather on mobile